Arco, Minnesota
Current Conditions -  °F | °C
As of 5:35 AM on Saturday 20 Dec 2014 (Local Time) from KMML Reporting Station
Overcast Overcast  
Wind Chill: 21°   Ceiling: 1000
Heat Index: 30°   Visibility: 7mi
Dew Point: 27°   Wind: 10mph
Humidity: 86%   Direction: 220°SW
Pressure: 30.08"   Gusts: NA
Location:  44.38°N, 96.18°W
Report Text: KMML 201135Z AUTO 22009KT 7SM OVC010 M01/M03 A3008 RMK AO1
Loading
Personal Weather Stations






























Interactive Weather Map New forecast layout! Learn more

10-Day Weather Forecast

Advertisements
Track Severe Weather on mobile